Time;durP1;ratioP1;P1;durP2;ratioP2;P2;SDS_P1;SDS_P2;PMS_P1;PMS_P2;Temp;Humidity;BMP_temperature;BMP_pressure;BME280_temperature;BME280_humidity;BME280_pressure;Samples;Min_cycle;Max_cycle;Signal;HPM_P1;HPM_P2
2023/10/07 00:00:52;;;;;;;11.20;5.57;;;;;;;11.27;100.00;98930.66;5117214;28;20556;-73
2023/10/07 00:03:20;;;;;;;8.90;5.47;;;;;;;11.23;100.00;98929.44;5117535;28;20210;-73
2023/10/07 00:05:50;;;;;;;8.37;5.37;;;;;;;11.21;100.00;98930.66;5117051;28;20209;-73
2023/10/07 00:08:19;;;;;;;9.33;5.40;;;;;;;11.21;100.00;98925.34;5117033;28;20258;-73
2023/10/07 00:10:49;;;;;;;9.17;5.40;;;;;;;11.23;100.00;98933.97;5116957;28;20661;-73
2023/10/07 00:13:17;;;;;;;7.60;5.67;;;;;;;11.18;100.00;98928.41;5117090;28;20235;-73
2023/10/07 00:15:46;;;;;;;8.27;5.40;;;;;;;11.12;100.00;98923.88;5117100;28;20215;-73
2023/10/07 00:18:13;;;;;;;8.83;5.63;;;;;;;11.12;100.00;98926.53;5116936;27;20313;-73
2023/10/07 00:20:51;;;;;;;10.23;5.83;;;;;;;11.13;100.00;98921.03;5116825;28;20203;-73
2023/10/07 00:23:20;;;;;;;7.53;6.00;;;;;;;11.13;100.00;98922.06;5116905;28;20245;-73
2023/10/07 00:25:51;;;;;;;9.20;5.57;;;;;;;11.13;100.00;98920.22;5116707;28;20203;-73
2023/10/07 00:28:28;;;;;;;10.13;5.83;;;;;;;11.13;100.00;98922.06;5116840;28;20223;-73
2023/10/07 00:30:57;;;;;;;9.73;6.33;;;;;;;11.02;100.00;98918.13;5117013;28;20211;-73
2023/10/07 00:33:23;;;;;;;9.27;5.90;;;;;;;10.99;100.00;98921.19;5117009;28;20611;-73
2023/10/07 00:35:53;;;;;;;9.27;5.97;;;;;;;10.96;100.00;98917.06;5116911;28;20202;-73
2023/10/07 00:38:22;;;;;;;9.93;6.17;;;;;;;10.94;100.00;98913.81;5116676;28;20590;-73
2023/10/07 00:40:56;;;;;;;9.03;5.90;;;;;;;10.97;100.00;98917.91;5116391;28;20199;-73
2023/10/07 00:43:30;;;;;;;10.37;6.23;;;;;;;10.93;100.00;98924.66;5116881;28;20282;-73
2023/10/07 00:46:06;;;;;;;9.00;6.00;;;;;;;10.93;100.00;98922.81;5116792;28;20187;-73
2023/10/07 00:48:47;;;;;;;9.07;5.87;;;;;;;10.94;100.00;98924.44;5116703;28;20261;-73
2023/10/07 00:51:17;;;;;;;9.43;6.40;;;;;;;10.85;100.00;98919.50;5116607;28;20211;-73
2023/10/07 00:53:52;;;;;;;10.07;6.27;;;;;;;10.78;100.00;98919.47;5116599;27;20275;-73
2023/10/07 00:56:19;;;;;;;9.53;6.83;;;;;;;10.80;100.00;98911.31;5116403;28;20192;-73
2023/10/07 00:58:47;;;;;;;10.00;6.80;;;;;;;10.70;100.00;98901.06;5116320;28;20227;-73
2023/10/07 01:01:14;;;;;;;8.50;6.10;;;;;;;10.73;100.00;98905.16;5116400;28;20199;-73
2023/10/07 01:03:51;;;;;;;10.40;6.37;;;;;;;10.78;100.00;98903.50;5116042;28;20203;-73
2023/10/07 01:06:26;;;;;;;13.10;6.70;;;;;;;10.72;100.00;98896.34;5116528;28;20203;-73
2023/10/07 01:09:07;;;;;;;9.43;6.27;;;;;;;10.66;100.00;98891.00;5116876;28;20232;-73
2023/10/07 01:11:37;;;;;;;9.70;6.50;;;;;;;10.66;100.00;98888.34;5116285;28;20207;-73
2023/10/07 01:14:05;;;;;;;9.67;6.20;;;;;;;10.72;100.00;98890.19;5116455;28;20203;-73
2023/10/07 01:16:41;;;;;;;10.13;6.90;;;;;;;10.62;100.00;98881.78;5115917;28;20255;-73
2023/10/07 01:19:27;;;;;;;10.33;6.83;;;;;;;10.68;100.00;98876.47;5116090;28;20222;-73
2023/10/07 01:21:55;;;;;;;8.90;6.20;;;;;;;10.72;100.00;98880.38;5116054;28;20184;-73
2023/10/07 01:24:41;;;;;;;8.50;5.90;;;;;;;10.75;100.00;98873.84;5115939;28;20252;-73
2023/10/07 01:27:18;;;;;;;8.80;6.10;;;;;;;10.74;100.00;98874.88;5115743;28;20183;-73
2023/10/07 01:29:44;;;;;;;8.90;6.40;;;;;;;10.67;100.00;98871.34;5116029;28;20198;-73
2023/10/07 01:32:15;;;;;;;9.83;6.60;;;;;;;10.68;100.00;98865.03;5115391;28;20708;-73
2023/10/07 01:34:47;;;;;;;11.40;6.33;;;;;;;10.63;100.00;98862.97;5115760;28;20198;-73
2023/10/07 01:37:20;;;;;;;10.73;6.50;;;;;;;10.60;100.00;98862.56;5115995;28;20187;-73
2023/10/07 01:39:49;;;;;;;9.87;5.93;;;;;;;10.60;100.00;98855.38;5115872;28;20225;-73
2023/10/07 01:42:26;;;;;;;11.53;6.17;;;;;;;10.67;100.00;98855.41;5115830;28;20252;-73
2023/10/07 01:44:57;;;;;;;10.87;6.50;;;;;;;10.64;100.00;98856.63;5115843;28;20202;-73
2023/10/07 01:47:24;;;;;;;9.33;6.27;;;;;;;10.61;100.00;98858.88;5115433;28;20278;-73
2023/10/07 01:49:54;;;;;;;10.33;6.00;;;;;;;10.58;100.00;98851.28;5115192;28;20654;-73
2023/10/07 01:52:26;;;;;;;10.50;6.17;;;;;;;10.55;100.00;98857.03;5114165;28;20322;-73
2023/10/07 01:54:54;;;;;;;9.13;6.20;;;;;;;10.52;100.00;98855.56;5115435;28;20183;-73
2023/10/07 01:57:20;;;;;;;10.93;5.93;;;;;;;10.51;100.00;98869.06;5115213;28;20574;-73
2023/10/07 01:59:47;;;;;;;8.87;6.03;;;;;;;10.51;100.00;98863.75;5115281;28;20207;-73
2023/10/07 02:02:15;;;;;;;10.07;6.43;;;;;;;10.44;100.00;98871.69;5115197;28;20620;-73
2023/10/07 02:04:42;;;;;;;11.50;6.50;;;;;;;10.41;100.00;98865.97;5115140;28;20243;-73
2023/10/07 02:07:08;;;;;;;8.10;5.80;;;;;;;10.47;100.00;98870.47;5115025;28;20202;-73
2023/10/07 02:09:40;;;;;;;10.00;6.60;;;;;;;10.42;100.00;98872.91;5115380;28;20207;-73
2023/10/07 02:12:09;;;;;;;9.57;6.43;;;;;;;10.48;100.00;98872.94;5114994;28;20214;-73
2023/10/07 02:14:35;;;;;;;10.77;6.30;;;;;;;10.46;100.00;98879.47;5114985;28;20203;-73
2023/10/07 02:17:02;;;;;;;12.10;6.33;;;;;;;10.43;100.00;98882.53;5114648;28;20207;-73
2023/10/07 02:19:29;;;;;;;8.80;6.40;;;;;;;10.46;100.00;98882.13;5114981;28;20654;-73
2023/10/07 02:22:04;;;;;;;11.43;6.50;;;;;;;10.39;100.00;98881.28;5115085;28;20199;-73
2023/10/07 02:24:32;;;;;;;11.67;6.77;;;;;;;10.31;100.00;98876.13;5114834;28;20282;-73
2023/10/07 02:27:03;;;;;;;15.00;7.47;;;;;;;10.32;100.00;98880.44;5114737;28;20199;-73
2023/10/07 02:29:30;;;;;;;13.33;6.97;;;;;;;10.32;100.00;98880.44;5114470;28;20206;-73
2023/10/07 02:32:07;;;;;;;12.53;6.93;;;;;;;10.27;100.00;98891.66;5114302;28;20701;-73
2023/10/07 02:34:34;;;;;;;9.97;5.87;;;;;;;10.22;100.00;98886.09;5114654;28;20554;-73
2023/10/07 02:37:13;;;;;;;9.77;6.77;;;;;;;10.15;100.00;98895.88;5114677;28;20214;-73
2023/10/07 02:39:46;;;;;;;13.70;6.80;;;;;;;10.14;100.00;98896.06;5114579;28;20187;-73
2023/10/07 02:42:21;;;;;;;11.17;7.50;;;;;;;10.19;100.00;98901.63;5114576;28;20237;-73
2023/10/07 02:45:00;;;;;;;9.50;6.67;;;;;;;10.15;100.00;98903.03;5114523;28;20209;-73
2023/10/07 02:47:27;;;;;;;8.93;6.47;;;;;;;10.16;100.00;98896.69;5114237;28;20219;-73
2023/10/07 02:49:54;;;;;;;12.00;6.73;;;;;;;10.08;100.00;98905.63;5114395;28;20207;-73
2023/10/07 02:52:20;;;;;;;11.70;6.50;;;;;;;10.08;100.00;98894.19;5114282;28;20219;-73
2023/10/07 02:55:06;;;;;;;9.07;6.60;;;;;;;9.97;100.00;98898.19;5114289;28;20207;-73
2023/10/07 02:57:39;;;;;;;8.70;6.30;;;;;;;9.88;100.00;98903.84;5114342;28;20255;-73
2023/10/07 03:00:15;;;;;;;12.23;6.93;;;;;;;9.95;100.00;98899.38;5114245;28;20191;-73
2023/10/07 03:02:48;;;;;;;12.97;6.60;;;;;;;9.89;100.00;98903.66;5114314;28;20190;-73
2023/10/07 03:05:29;;;;;;;9.17;6.13;;;;;;;9.96;100.00;98901.03;5115112;28;20191;-73
2023/10/07 03:08:02;;;;;;;10.80;6.43;;;;;;;9.85;100.00;98898.91;5113795;28;20313;-73
2023/10/07 03:10:42;;;;;;;11.90;6.60;;;;;;;9.80;100.00;98902.16;5114156;28;20188;-73
2023/10/07 03:13:08;;;;;;;9.00;6.40;;;;;;;9.87;100.00;98892.38;5114052;28;20210;-73
2023/10/07 03:15:41;;;;;;;10.20;6.83;;;;;;;9.84;100.00;98895.44;5113640;28;20211;-73
2023/10/07 03:18:22;;;;;;;13.20;7.00;;;;;;;9.82;100.00;98900.13;5113539;28;20272;-73
2023/10/07 03:21:06;;;;;;;9.90;6.83;;;;;;;9.81;100.00;98893.16;5113587;28;20191;-73
2023/10/07 03:23:37;;;;;;;13.10;7.50;;;;;;;9.90;100.00;98891.16;5113659;28;20194;-73
2023/10/07 03:26:06;;;;;;;9.67;6.57;;;;;;;9.88;100.00;98895.88;5114059;28;20191;-73
2023/10/07 03:28:36;;;;;;;10.30;7.00;;;;;;;9.89;100.00;98897.50;5113815;28;20230;-73
2023/10/07 03:31:12;;;;;;;13.10;7.40;;;;;;;9.88;100.00;98903.84;5114172;28;20207;-73
2023/10/07 03:33:48;;;;;;;11.97;7.30;;;;;;;9.64;100.00;98905.09;5114129;28;20207;-73
2023/10/07 03:39:25;;;;;;;13.53;6.87;;;;;;;9.80;100.00;98907.47;5131644;27;20554;-72
2023/10/07 03:41:55;;;;;;;11.30;7.27;;;;;;;9.76;100.00;98916.81;5131782;27;20238;-72
2023/10/07 03:44:25;;;;;;;11.93;6.60;;;;;;;9.67;100.00;98912.66;5131742;27;20525;-72
2023/10/07 03:46:55;;;;;;;8.93;6.57;;;;;;;9.72;100.00;98931.50;5131703;27;20253;-72
2023/10/07 03:49:23;;;;;;;10.67;6.77;;;;;;;9.76;100.00;98934.59;5131438;27;20225;-72
2023/10/07 03:51:59;;;;;;;10.17;6.77;;;;;;;9.84;100.00;98934.44;5131361;27;20554;-72
2023/10/07 03:54:29;;;;;;;10.43;6.60;;;;;;;9.69;100.00;98939.03;5131186;27;20288;-72
2023/10/07 03:56:56;;;;;;;8.43;6.10;;;;;;;9.80;100.00;98951.78;5131902;27;20203;-72
2023/10/07 03:59:25;;;;;;;9.10;5.87;;;;;;;9.79;100.00;98948.31;5131507;27;20222;-73
2023/10/07 04:01:54;;;;;;;8.23;6.03;;;;;;;9.72;100.00;98941.28;5131667;27;20187;-73
2023/10/07 04:04:24;;;;;;;7.93;5.50;;;;;;;9.69;100.00;98947.00;5131619;27;20229;-74
2023/10/07 04:06:51;;;;;;;9.50;6.53;;;;;;;9.67;100.00;98951.66;5131457;27;20213;-72
2023/10/07 04:09:25;;;;;;;8.77;5.77;;;;;;;9.61;100.00;98944.47;5131232;27;20219;-72
2023/10/07 04:11:52;;;;;;;9.47;6.13;;;;;;;9.55;100.00;98948.72;5131437;27;20198;-72
2023/10/07 04:14:27;;;;;;;10.03;5.67;;;;;;;9.53;100.00;98944.59;5131248;28;20202;-72
2023/10/07 04:16:58;;;;;;;8.10;6.20;;;;;;;9.53;100.00;98945.44;5130950;28;20182;-72
2023/10/07 04:19:38;;;;;;;11.67;6.20;;;;;;;9.53;100.00;98941.94;5131145;27;20234;-72
2023/10/07 04:22:07;;;;;;;9.30;5.80;;;;;;;9.55;100.00;98940.75;5131141;28;20210;-72
2023/10/07 04:24:35;;;;;;;7.43;4.97;;;;;;;9.57;100.00;98938.75;5131097;27;20241;-72
2023/10/07 04:27:03;;;;;;;7.93;5.80;;;;;;;9.58;100.00;98942.19;5131203;27;20206;-72
2023/10/07 04:29:31;;;;;;;7.50;5.57;;;;;;;9.52;100.00;98937.66;5131103;27;20202;-72
2023/10/07 04:32:05;;;;;;;9.30;6.20;;;;;;;9.36;100.00;98938.75;5131128;27;20218;-73
2023/10/07 04:34:35;;;;;;;7.37;5.73;;;;;;;9.35;100.00;98929.13;5131028;27;20199;-72
2023/10/07 04:37:14;;;;;;;12.30;5.73;;;;;;;9.43;100.00;98936.97;5130584;27;20213;-72
2023/10/07 04:40:27;;;;;;;9.57;5.40;;;;;;;9.43;100.00;98930.84;5130874;27;20195;-73
2023/10/07 04:42:36;;;;;;;10.33;5.70;;;;;;;9.35;100.00;98923.00;5130269;28;20207;-72
2023/10/07 04:45:22;;;;;;;8.00;5.67;;;;;;;9.22;100.00;98921.03;5130658;27;20193;-72
2023/10/07 04:47:57;;;;;;;10.57;5.83;;;;;;;9.29;100.00;98932.56;5130492;27;20250;-72
2023/10/07 04:50:33;;;;;;;9.20;5.87;;;;;;;9.27;100.00;98949.66;5117249;27;20660;-72
2023/10/07 04:53:03;;;;;;;8.47;6.20;;;;;;;9.25;100.00;98949.03;5116657;28;20183;-72
2023/10/07 04:55:30;;;;;;;9.30;5.77;;;;;;;9.21;100.00;98945.09;5116729;28;20244;-72
2023/10/07 04:57:58;;;;;;;8.50;5.70;;;;;;;9.26;100.00;98951.50;5116347;28;20777;-72
2023/10/07 05:00:34;;;;;;;12.00;6.30;;;;;;;9.15;100.00;98943.22;5116766;28;20610;-72
2023/10/07 05:03:14;;;;;;;10.43;6.63;;;;;;;9.29;100.00;98937.03;5116751;28;20622;-72
2023/10/07 05:05:43;;;;;;;9.70;5.90;;;;;;;9.35;100.00;98941.56;5116295;28;20244;-72
2023/10/07 05:08:10;;;;;;;10.23;5.77;;;;;;;9.44;100.00;98941.28;5116204;28;20223;-72
2023/10/07 05:10:41;;;;;;;9.43;5.43;;;;;;;9.42;100.00;98940.63;5116473;28;20299;-73
2023/10/07 05:13:07;;;;;;;9.13;5.97;;;;;;;9.40;100.00;98924.06;5116379;28;20568;-72
2023/10/07 05:15:36;;;;;;;10.57;6.00;;;;;;;9.43;100.00;98928.19;5116359;28;20203;-72
2023/10/07 05:18:03;;;;;;;10.60;6.47;;;;;;;9.36;100.00;98920.16;5116178;28;20230;-72
2023/10/07 05:20:32;;;;;;;9.07;5.80;;;;;;;9.34;100.00;98932.81;5116148;28;20203;-72
2023/10/07 05:23:02;;;;;;;10.30;5.57;;;;;;;9.42;100.00;98927.34;5116150;28;20203;-72
2023/10/07 05:25:35;;;;;;;7.07;5.37;;;;;;;9.43;100.00;98941.44;5116272;28;20199;-72
2023/10/07 05:28:03;;;;;;;7.80;5.60;;;;;;;9.37;100.00;98939.56;5116225;28;20223;-72
2023/10/07 05:30:32;;;;;;;8.13;5.57;;;;;;;9.28;100.00;98938.84;5116227;28;20207;-72
2023/10/07 05:33:00;;;;;;;9.50;5.20;;;;;;;9.24;100.00;98942.09;5116156;28;20207;-73
2023/10/07 05:35:26;;;;;;;8.37;5.70;;;;;;;9.21;100.00;98943.28;5116200;28;20202;-72
2023/10/07 05:37:52;;;;;;;8.60;5.60;;;;;;;9.29;100.00;98950.31;5115382;28;20237;-72
2023/10/07 05:40:21;;;;;;;8.40;5.40;;;;;;;9.20;100.00;98951.44;5115807;28;20206;-72
2023/10/07 05:42:47;;;;;;;8.83;5.30;;;;;;;9.09;100.00;98962.56;5115640;28;20301;-72
2023/10/07 05:45:15;;;;;;;6.57;5.60;;;;;;;9.07;100.00;98959.25;5115600;28;20209;-72
2023/10/07 05:47:43;;;;;;;9.53;6.07;;;;;;;9.07;100.00;98948.63;5115674;28;20280;-72
2023/10/07 05:50:09;;;;;;;9.80;6.27;;;;;;;9.14;100.00;98952.19;5115260;28;20688;-72
2023/10/07 05:52:36;;;;;;;11.13;6.70;;;;;;;9.23;100.00;98951.06;5115607;28;20661;-72
2023/10/07 05:55:02;;;;;;;8.27;6.17;;;;;;;9.21;100.00;98956.56;5115526;28;20214;-72
2023/10/07 05:57:29;;;;;;;11.10;6.00;;;;;;;9.28;100.00;98954.78;5115421;28;20313;-72
2023/10/07 05:59:55;;;;;;;9.30;5.57;;;;;;;9.29;100.00;98945.81;5115386;28;20203;-72
2023/10/07 06:02:21;;;;;;;9.93;5.70;;;;;;;9.28;100.00;98946.00;5114406;28;20210;-72
2023/10/07 06:04:48;;;;;;;9.90;5.37;;;;;;;9.38;100.00;98943.84;5115406;28;20207;-72
2023/10/07 06:07:14;;;;;;;10.73;6.17;;;;;;;9.44;100.00;98954.53;5115358;28;20203;-72
2023/10/07 06:09:41;;;;;;;10.70;5.83;;;;;;;9.57;100.00;98948.53;5115410;28;20207;-72
2023/10/07 06:12:09;;;;;;;11.17;6.73;;;;;;;9.73;100.00;98958.88;5115209;28;20203;-72
2023/10/07 06:14:38;;;;;;;10.47;6.07;;;;;;;9.75;100.00;98959.50;5115229;28;20233;-72
2023/10/07 06:17:06;;;;;;;10.50;6.03;;;;;;;9.88;100.00;98960.44;5114679;28;20669;-72
2023/10/07 06:19:33;;;;;;;13.30;6.00;;;;;;;9.93;100.00;98965.16;5114985;28;20238;-72
2023/10/07 06:22:10;;;;;;;9.37;5.57;;;;;;;10.02;100.00;98964.00;5115085;28;20203;-72
2023/10/07 06:24:37;;;;;;;9.53;5.93;;;;;;;10.03;100.00;98963.81;5114795;28;20236;-72
2023/10/07 06:27:07;;;;;;;9.43;6.10;;;;;;;10.12;100.00;98961.88;5114710;28;20684;-72
2023/10/07 06:29:33;;;;;;;9.13;5.63;;;;;;;10.23;100.00;98962.16;5114628;27;20677;-72
2023/10/07 06:32:13;;;;;;;11.57;5.70;;;;;;;10.26;100.00;98953.78;5114921;28;20207;-72
2023/10/07 06:34:41;;;;;;;8.57;6.20;;;;;;;10.30;100.00;98954.22;5114777;28;20194;-72
2023/10/07 06:37:08;;;;;;;9.67;5.50;;;;;;;10.45;100.00;98946.97;5114075;28;20211;-72
2023/10/07 06:39:34;;;;;;;8.80;5.30;;;;;;;10.44;100.00;98937.31;5114231;28;20207;-72
2023/10/07 06:42:01;;;;;;;11.23;5.50;;;;;;;10.55;100.00;98944.75;5114747;28;20227;-72
2023/10/07 06:44:27;;;;;;;8.63;5.30;;;;;;;10.59;100.00;98954.78;5114678;28;20209;-72
2023/10/07 06:46:56;;;;;;;9.10;5.83;;;;;;;10.66;100.00;98960.13;5114567;28;20210;-72
2023/10/07 06:49:23;;;;;;;8.50;5.23;;;;;;;10.80;100.00;98972.47;5114458;28;20318;-72
2023/10/07 06:51:53;;;;;;;8.70;6.00;;;;;;;10.92;100.00;98978.88;5114622;28;20285;-72
2023/10/07 06:54:24;;;;;;;9.13;5.67;;;;;;;11.04;100.00;98993.28;5114603;28;20187;-72
2023/10/07 06:56:54;;;;;;;9.93;5.20;;;;;;;11.15;100.00;99000.66;5114450;28;20195;-72
2023/10/07 06:59:27;;;;;;;9.97;5.90;;;;;;;11.25;100.00;98998.44;5113786;28;20227;-72
2023/10/07 07:02:05;;;;;;;7.87;5.57;;;;;;;11.45;100.00;98998.50;5114360;28;20237;-72
2023/10/07 07:04:32;;;;;;;10.07;5.97;;;;;;;11.53;100.00;98999.13;5113927;28;20200;-72
2023/10/07 07:07:11;;;;;;;9.10;5.47;;;;;;;11.63;100.00;99017.41;5114089;28;20296;-72
2023/10/07 07:09:51;;;;;;;9.40;5.43;;;;;;;11.75;100.00;99018.47;5114154;28;20688;-72
2023/10/07 07:12:21;;;;;;;7.97;5.47;;;;;;;11.71;100.00;99019.91;5113913;28;20274;-72
2023/10/07 07:14:51;;;;;;;9.07;5.63;;;;;;;11.88;100.00;99023.78;5113667;28;20203;-72
2023/10/07 07:17:35;;;;;;;7.37;5.03;;;;;;;12.02;100.00;99010.28;5113945;28;20193;-73
2023/10/07 07:22:51;;;;;;;8.00;5.60;;;;;;;11.92;100.00;99003.72;5113679;28;20253;-73
2023/10/07 07:25:36;;;;;;;8.60;5.27;;;;;;;12.02;100.00;99010.28;5113808;28;20199;-72
2023/10/07 07:28:04;;;;;;;8.27;5.53;;;;;;;11.99;100.00;99016.03;5113522;28;20216;-72
2023/10/07 07:30:29;;;;;;;6.67;5.43;;;;;;;11.90;100.00;99006.59;5113879;28;20201;-72
2023/10/07 07:32:59;;;;;;;8.77;5.70;;;;;;;11.81;100.00;99015.81;5113837;28;20618;-72
2023/10/07 07:35:39;;;;;;;8.10;5.20;;;;;;;11.82;100.00;99004.13;5114850;28;20208;-72
2023/10/07 07:41:08;;;;;;;7.60;4.93;;;;;;;12.08;100.00;99005.97;5110453;28;20253;-72
2023/10/07 07:43:37;;;;;;;8.77;5.33;;;;;;;12.11;100.00;99016.25;5113647;28;20199;-73
2023/10/07 07:46:26;;;;;;;7.97;5.00;;;;;;;12.21;100.00;99009.44;5113719;28;20559;-72
2023/10/07 07:49:05;;;;;;;7.77;5.30;;;;;;;12.29;100.00;99019.91;5113572;28;20225;-73
2023/10/07 07:51:37;;;;;;;9.10;4.80;;;;;;;12.50;100.00;99025.03;5113803;28;20189;-73
2023/10/07 07:54:07;;;;;;;7.03;4.93;;;;;;;12.47;100.00;99011.25;5113758;28;20221;-72
2023/10/07 07:56:35;;;;;;;11.40;5.40;;;;;;;12.51;100.00;99010.66;5113757;28;20196;-72
2023/10/07 07:59:13;;;;;;;10.57;5.07;;;;;;;12.65;100.00;98998.94;5113396;28;20255;-73
2023/10/07 08:01:46;;;;;;;6.20;4.77;;;;;;;13.04;100.00;98998.84;5113272;28;20195;-73
2023/10/07 08:04:18;;;;;;;7.00;5.03;;;;;;;13.31;100.00;99004.88;5113256;28;20194;-72
2023/10/07 08:06:47;;;;;;;8.50;5.77;;;;;;;13.43;100.00;99013.88;5113600;28;20200;-72
2023/10/07 08:09:19;;;;;;;7.57;5.13;;;;;;;13.70;100.00;99010.81;5113420;28;20309;-72
2023/10/07 08:11:45;;;;;;;8.97;5.07;;;;;;;13.93;100.00;99019.06;5113529;28;20210;-72
2023/10/07 08:14:12;;;;;;;7.63;4.97;;;;;;;14.02;100.00;99022.31;5113040;28;20207;-72
2023/10/07 08:16:50;;;;;;;7.00;5.00;;;;;;;14.12;100.00;99019.97;5112929;28;20203;-72
2023/10/07 08:19:23;;;;;;;9.63;5.43;;;;;;;14.18;100.00;99017.25;5112867;28;20234;-72
2023/10/07 08:21:52;;;;;;;7.47;4.97;;;;;;;14.19;100.00;99020.72;5113389;28;20194;-73
2023/10/07 08:24:22;;;;;;;7.77;5.07;;;;;;;14.18;100.00;99025.28;5114444;28;20226;-73
2023/10/07 08:26:55;;;;;;;9.63;5.87;;;;;;;14.24;100.00;99016.41;5117324;28;20207;-73
2023/10/07 08:29:31;;;;;;;7.63;4.87;;;;;;;14.31;100.00;99017.16;5117051;28;20261;-72
2023/10/07 08:31:59;;;;;;;8.63;5.43;;;;;;;14.27;100.00;99024.00;5116942;28;20719;-72
2023/10/07 08:34:32;;;;;;;8.90;4.97;;;;;;;14.41;100.00;99017.50;5116701;28;20730;-72
2023/10/07 08:37:01;;;;;;;8.60;5.83;;;;;;;14.68;100.00;99024.22;5116749;28;20327;-72
2023/10/07 08:39:28;;;;;;;8.13;5.90;;;;;;;14.88;100.00;99019.47;5116702;28;20296;-72
2023/10/07 08:41:58;;;;;;;10.63;6.00;;;;;;;15.00;100.00;99016.84;5116541;28;20303;-72
2023/10/07 08:44:31;;;;;;;7.70;5.03;;;;;;;15.27;100.00;99010.16;5116798;28;20211;-72
2023/10/07 08:47:04;;;;;;;10.20;5.33;;;;;;;15.11;100.00;99000.84;5116459;28;20187;-72
2023/10/07 08:49:33;;;;;;;9.07;5.70;;;;;;;15.13;100.00;99012.19;5116903;28;20203;-72
2023/10/07 08:52:00;;;;;;;8.00;5.13;;;;;;;15.16;100.00;99013.59;5116543;28;20213;-72
2023/10/07 08:54:31;;;;;;;13.77;6.40;;;;;;;15.14;100.00;99013.81;5116724;28;20207;-72
2023/10/07 08:57:06;;;;;;;7.10;5.10;;;;;;;15.28;100.00;99012.59;5116263;28;20188;-72
2023/10/07 08:59:33;;;;;;;12.03;7.13;;;;;;;15.23;100.00;99014.31;5115718;28;20218;-72
2023/10/07 09:02:01;;;;;;;8.53;5.87;;;;;;;15.31;100.00;99017.53;5116514;28;20210;-72
2023/10/07 09:04:31;;;;;;;8.67;5.57;;;;;;;15.27;100.00;99002.94;5116498;28;20207;-72
2023/10/07 09:06:58;;;;;;;7.47;5.50;;;;;;;15.32;100.00;99004.91;5116521;28;20191;-72
2023/10/07 09:09:33;;;;;;;8.47;6.17;;;;;;;15.31;99.93;98998.75;5115768;27;20220;-72
2023/10/07 09:12:03;;;;;;;8.40;5.40;;;;;;;15.34;100.00;98990.28;5116058;28;20642;-72
2023/10/07 09:14:33;;;;;;;9.37;5.60;;;;;;;15.40;100.00;98997.44;5116087;28;20670;-72
2023/10/07 09:17:01;;;;;;;8.83;6.03;;;;;;;15.47;100.00;99000.81;5116385;28;20546;-72
2023/10/07 09:19:29;;;;;;;8.20;5.40;;;;;;;15.45;100.00;98999.41;5116005;28;20295;-72
2023/10/07 09:21:57;;;;;;;7.77;5.10;;;;;;;15.66;100.00;98999.75;5116156;28;20298;-72
2023/10/07 09:24:25;;;;;;;9.63;5.87;;;;;;;15.62;100.00;99009.31;5116199;28;20298;-72
2023/10/07 09:26:56;;;;;;;8.90;6.33;;;;;;;15.75;100.00;99005.59;5115794;28;20200;-72
2023/10/07 09:29:32;;;;;;;10.30;5.73;;;;;;;15.82;99.55;99003.63;5115941;27;20219;-72
2023/10/07 09:32:04;;;;;;;10.03;5.97;;;;;;;16.07;98.28;99018.53;5115909;28;20210;-72
2023/10/07 09:34:41;;;;;;;8.03;5.77;;;;;;;16.03;97.92;99020.03;5115717;28;20188;-73
2023/10/07 09:37:20;;;;;;;8.83;5.20;;;;;;;16.16;98.66;99019.00;5115819;28;20238;-73
2023/10/07 09:39:54;;;;;;;10.10;5.43;;;;;;;16.20;98.20;99017.47;5115722;28;20207;-72
2023/10/07 09:42:26;;;;;;;9.83;5.93;;;;;;;16.18;98.60;99017.72;5115738;28;20187;-72
2023/10/07 09:44:59;;;;;;;9.13;5.73;;;;;;;16.19;99.60;99013.97;5115610;28;20192;-72
2023/10/07 09:47:27;;;;;;;10.53;6.00;;;;;;;16.10;98.34;99014.56;5115633;28;20223;-72
2023/10/07 09:49:58;;;;;;;9.60;5.60;;;;;;;16.21;99.25;99019.09;5115378;28;20199;-72
2023/10/07 09:52:29;;;;;;;7.60;5.07;;;;;;;16.17;97.29;99021.44;5115627;28;20200;-72
2023/10/07 09:55:21;;;;;;;10.07;5.67;;;;;;;16.24;98.50;99024.03;5115142;28;20669;-72
2023/10/07 09:58:11;;;;;;;7.77;5.67;;;;;;;16.27;98.61;99034.28;5115134;28;20253;-72
2023/10/07 10:01:04;;;;;;;9.07;5.77;;;;;;;16.18;98.03;99028.44;5106925;28;20263;-72
2023/10/07 10:04:03;;;;;;;8.53;5.30;;;;;;;16.47;100.00;99030.25;5115214;28;20286;-72
2023/10/07 10:06:53;;;;;;;12.97;5.73;;;;;;;16.57;100.00;99033.19;5115443;28;20187;-72
2023/10/07 10:09:27;;;;;;;8.77;5.10;;;;;;;16.75;99.53;99035.75;5115312;28;20219;-72
2023/10/07 10:12:18;;;;;;;7.40;4.67;;;;;;;17.05;97.94;99030.22;5115244;28;20194;-72
2023/10/07 10:14:56;;;;;;;7.67;4.90;;;;;;;17.21;96.00;99030.31;5114901;28;20256;-72
2023/10/07 10:17:32;;;;;;;8.17;5.17;;;;;;;17.23;95.08;99033.56;5114523;28;20684;-72
2023/10/07 10:20:11;;;;;;;8.97;4.83;;;;;;;17.35;93.63;99031.66;5114771;28;20356;-72
2023/10/07 10:22:38;;;;;;;4.90;3.73;;;;;;;17.57;85.56;99032.69;5114939;28;20189;-72
2023/10/07 10:25:22;;;;;;;5.77;3.10;;;;;;;17.65;72.84;99032.28;5114824;28;20260;-72
2023/10/07 10:27:48;;;;;;;3.27;2.23;;;;;;;17.77;64.56;99027.66;5114073;28;20713;-72
2023/10/07 10:30:24;;;;;;;3.63;2.67;;;;;;;17.88;64.23;99025.97;5114163;28;20685;-73
2023/10/07 10:32:54;;;;;;;5.07;2.97;;;;;;;17.96;61.60;99030.97;5114683;28;20213;-73
2023/10/07 10:35:23;;;;;;;4.93;2.60;;;;;;;18.00;60.03;99027.53;5114309;28;20733;-73
2023/10/07 10:37:59;;;;;;;3.77;2.70;;;;;;;18.01;59.00;99025.69;5114075;28;20601;-73
2023/10/07 10:40:31;;;;;;;3.93;3.00;;;;;;;18.10;59.29;99027.72;5114461;28;20229;-73
2023/10/07 10:42:58;;;;;;;4.10;2.67;;;;;;;18.09;58.23;99017.22;5114544;28;20187;-72
2023/10/07 10:45:26;;;;;;;7.43;2.70;;;;;;;18.18;58.94;99019.25;5114454;28;20296;-72
2023/10/07 10:47:54;;;;;;;4.37;2.60;;;;;;;18.37;58.06;99011.78;5113619;28;20220;-72
2023/10/07 10:50:23;;;;;;;3.00;2.70;;;;;;;18.53;58.25;99008.25;5114301;28;20199;-72
2023/10/07 10:52:54;;;;;;;3.97;2.50;;;;;;;18.64;58.90;99010.03;5113949;28;20199;-72
2023/10/07 10:55:24;;;;;;;3.60;2.57;;;;;;;18.61;56.79;99011.34;5114292;28;20199;-72
2023/10/07 10:57:52;;;;;;;4.17;3.10;;;;;;;18.61;57.31;99005.13;5114324;28;20227;-72
2023/10/07 11:00:21;;;;;;;4.13;2.87;;;;;;;18.69;56.78;98993.94;5114121;28;20227;-72
2023/10/07 11:02:50;;;;;;;3.70;2.80;;;;;;;18.55;57.14;99001.53;5113641;28;20650;-72
2023/10/07 11:05:17;;;;;;;3.97;2.83;;;;;;;18.61;57.19;98997.06;5113979;28;20207;-72
2023/10/07 11:07:46;;;;;;;4.23;2.67;;;;;;;18.63;56.66;99005.69;5114091;28;20227;-72
2023/10/07 11:10:17;;;;;;;4.40;2.77;;;;;;;18.65;56.95;98995.50;5113912;28;20207;-72
2023/10/07 11:12:51;;;;;;;4.80;2.73;;;;;;;18.78;57.76;98992.47;5114196;28;20195;-72
2023/10/07 11:15:24;;;;;;;4.10;2.73;;;;;;;18.76;57.04;98987.31;5114121;28;20240;-73
2023/10/07 11:18:11;;;;;;;5.53;2.80;;;;;;;18.86;56.17;98984.75;5113702;28;20701;-73
2023/10/07 11:20:40;;;;;;;5.57;2.97;;;;;;;18.91;55.79;98984.81;5113738;28;20223;-73
2023/10/07 11:23:10;;;;;;;4.03;2.80;;;;;;;18.91;54.93;98981.31;5113975;28;20209;-73
2023/10/07 11:25:41;;;;;;;5.63;3.47;;;;;;;18.82;54.73;98980.91;5113882;28;20566;-73
2023/10/07 11:28:09;;;;;;;5.43;2.83;;;;;;;18.93;54.66;98971.09;5113443;28;20259;-73
2023/10/07 11:30:48;;;;;;;4.00;2.73;;;;;;;18.84;56.60;98970.72;5113437;28;20708;-73
2023/10/07 11:33:16;;;;;;;4.97;2.77;;;;;;;18.82;57.30;98972.03;5113744;28;20206;-73
2023/10/07 11:35:45;;;;;;;4.80;3.10;;;;;;;18.76;56.24;98976.53;5113848;28;20199;-73
2023/10/07 11:38:15;;;;;;;3.60;2.60;;;;;;;18.73;57.16;98977.03;5113775;28;20322;-73
2023/10/07 11:40:42;;;;;;;4.10;3.07;;;;;;;18.72;55.76;98969.19;5113662;28;20223;-73
2023/10/07 11:43:09;;;;;;;4.20;2.97;;;;;;;18.67;55.17;98961.03;5113497;28;20203;-73
2023/10/07 11:45:36;;;;;;;4.23;2.90;;;;;;;18.73;55.83;98971.63;5113341;28;20261;-73
2023/10/07 11:48:05;;;;;;;3.83;2.87;;;;;;;18.75;54.66;98968.69;5113262;28;20245;-73
2023/10/07 11:50:34;;;;;;;5.13;3.10;;;;;;;18.75;55.26;98968.69;5113209;28;20298;-73
2023/10/07 11:53:02;;;;;;;3.73;3.00;;;;;;;18.91;53.78;98965.94;5113535;28;20199;-73
2023/10/07 11:55:31;;;;;;;5.83;2.97;;;;;;;18.94;54.81;98972.72;5113400;28;20252;-73